DAL0818 KDCA-KCVG
Flight info
| Callsign | DAL0818 |
|---|---|
| Flight time | 1h 9m |
| Altitude | 36000 |
| Route | REBLL5 OTTTO COLNS GAVNN7 |
| Aircraft | B738/M-SDE2E3FGHIRWXY/LB1 |
Departure
| Time | 2026-04-30 02:45 |
|---|---|
| Airport | Ronald Reagan Washington National Airport (KDCA) |
Arrival
| Time | 2026-04-30 03:54 |
|---|---|
| Airport | Cincinnati Northern Kentucky International Airport (KCVG) |
| Time | Latitude | Longitude | Altitude | Speed | Heading |
|---|---|---|---|---|---|
| 2026-04-30 02:29 | 38.85484 | -77.04102 | 25 ft | 0 kts | 217° |
| 2026-04-30 02:39 | 38.85492 | -77.04095 | 24 ft | 2 kts | 217° |
| 2026-04-30 02:39 | 38.85504 | -77.04082 | 24 ft | 1 kts | 217° |
| 2026-04-30 02:39 | 38.85512 | -77.04076 | 24 ft | 2 kts | 195° |
| 2026-04-30 02:39 | 38.85528 | -77.04079 | 23 ft | 2 kts | 138° |
| 2026-04-30 02:40 | 38.85535 | -77.04098 | 24 ft | 2 kts | 85° |
| 2026-04-30 02:40 | 38.85533 | -77.04108 | 24 ft | 1 kts | 70° |
| 2026-04-30 02:40 | 38.85532 | -77.04111 | 24 ft | 0 kts | 72° |
| 2026-04-30 02:41 | 38.85536 | -77.04095 | 23 ft | 5 kts | 72° |
| 2026-04-30 02:42 | 38.85551 | -77.04028 | 22 ft | 9 kts | 75° |
| 2026-04-30 02:42 | 38.85603 | -77.03963 | 20 ft | 12 kts | 3° |
| 2026-04-30 02:42 | 38.85693 | -77.03969 | 19 ft | 13 kts | 355° |
| 2026-04-30 02:42 | 38.85791 | -77.03979 | 19 ft | 14 kts | 356° |
| 2026-04-30 02:43 | 38.85900 | -77.03986 | 17 ft | 15 kts | 5° |
| 2026-04-30 02:43 | 38.86010 | -77.03951 | 16 ft | 16 kts | 16° |
| 2026-04-30 02:43 | 38.86078 | -77.03897 | 15 ft | 7 kts | 94° |
| 2026-04-30 02:43 | 38.86042 | -77.03868 | 15 ft | 4 kts | 171° |
| 2026-04-30 02:44 | 38.86015 | -77.03865 | 16 ft | 6 kts | 175° |
| 2026-04-30 02:44 | 38.85805 | -77.03844 | 17 ft | 69 kts | 176° |
| 2026-04-30 02:44 | 38.85021 | -77.03764 | 19 ft | 147 kts | 176° |
| 2026-04-30 02:44 | 38.83799 | -77.03704 | 288 ft | 188 kts | 180° |
| 2026-04-30 02:45 | 38.82431 | -77.03826 | 1040 ft | 201 kts | 197° |
| 2026-04-30 02:45 | 38.81226 | -77.04681 | 2006 ft | 196 kts | 212° |
| 2026-04-30 02:45 | 38.79842 | -77.05226 | 2323 ft | 218 kts | 179° |
| 2026-04-30 02:45 | 38.78331 | -77.04608 | 2793 ft | 230 kts | 155° |
| 2026-04-30 02:46 | 38.76733 | -77.04007 | 3265 ft | 241 kts | 182° |
| 2026-04-30 02:46 | 38.75105 | -77.04855 | 3795 ft | 257 kts | 227° |
| 2026-04-30 02:46 | 38.74360 | -77.06923 | 4813 ft | 257 kts | 266° |
| 2026-04-30 02:46 | 38.74485 | -77.09277 | 5610 ft | 267 kts | 276° |
| 2026-04-30 02:47 | 38.74508 | -77.11687 | 6506 ft | 272 kts | 268° |
| 2026-04-30 02:47 | 38.74377 | -77.14116 | 7394 ft | 277 kts | 266° |
| 2026-04-30 02:47 | 38.74228 | -77.16624 | 8290 ft | 281 kts | 266° |
| 2026-04-30 02:47 | 38.74074 | -77.19173 | 9177 ft | 285 kts | 266° |
| 2026-04-30 02:48 | 38.73916 | -77.21758 | 10047 ft | 289 kts | 266° |
| 2026-04-30 02:48 | 38.73795 | -77.24408 | 10584 ft | 305 kts | 272° |
| 2026-04-30 02:48 | 38.74169 | -77.27281 | 10878 ft | 328 kts | 287° |
| 2026-04-30 02:48 | 38.74867 | -77.30206 | 11191 ft | 349 kts | 288° |
| 2026-04-30 02:49 | 38.75597 | -77.33341 | 11405 ft | 371 kts | 287° |
| 2026-04-30 02:49 | 38.76366 | -77.36696 | 11630 ft | 391 kts | 287° |
| 2026-04-30 02:49 | 38.77145 | -77.40132 | 12322 ft | 395 kts | 287° |
| 2026-04-30 02:49 | 38.77949 | -77.43667 | 12809 ft | 405 kts | 287° |
| 2026-04-30 02:50 | 38.78743 | -77.47218 | 13586 ft | 406 kts | 287° |
| 2026-04-30 02:50 | 38.79531 | -77.50743 | 14149 ft | 411 kts | 287° |
| 2026-04-30 02:50 | 38.80341 | -77.54409 | 14841 ft | 414 kts | 287° |
| 2026-04-30 02:50 | 38.81164 | -77.58124 | 15431 ft | 418 kts | 287° |
| 2026-04-30 02:51 | 38.81971 | -77.61839 | 16019 ft | 422 kts | 285° |
| 2026-04-30 02:51 | 38.82529 | -77.65593 | 16587 ft | 425 kts | 278° |
| 2026-04-30 02:51 | 38.82897 | -77.69435 | 17151 ft | 428 kts | 277° |
| 2026-04-30 02:51 | 38.83252 | -77.73305 | 17666 ft | 431 kts | 277° |
| 2026-04-30 02:52 | 38.83620 | -77.77231 | 18185 ft | 435 kts | 277° |
| 2026-04-30 02:52 | 38.83993 | -77.81203 | 18682 ft | 438 kts | 277° |
| 2026-04-30 02:52 | 38.84365 | -77.85162 | 19168 ft | 441 kts | 278° |
| 2026-04-30 02:52 | 38.84739 | -77.89148 | 19630 ft | 444 kts | 277° |
| 2026-04-30 02:53 | 38.84956 | -77.93198 | 20088 ft | 447 kts | 273° |
| 2026-04-30 02:53 | 38.85053 | -77.97300 | 20540 ft | 450 kts | 272° |
| 2026-04-30 02:53 | 38.85150 | -78.01431 | 20956 ft | 453 kts | 272° |
| 2026-04-30 02:53 | 38.85261 | -78.05704 | 21391 ft | 455 kts | 273° |
| 2026-04-30 02:54 | 38.85375 | -78.09942 | 21787 ft | 458 kts | 273° |
| 2026-04-30 02:54 | 38.85488 | -78.14120 | 22181 ft | 461 kts | 273° |
| 2026-04-30 02:54 | 38.85600 | -78.18241 | 22535 ft | 463 kts | 273° |
| 2026-04-30 02:54 | 38.85693 | -78.22498 | 22903 ft | 466 kts | 271° |
| 2026-04-30 02:55 | 38.85667 | -78.26723 | 23252 ft | 468 kts | 270° |
| 2026-04-30 02:55 | 38.85595 | -78.31092 | 23598 ft | 470 kts | 270° |
| 2026-04-30 02:55 | 38.85531 | -78.35380 | 23920 ft | 473 kts | 270° |
| 2026-04-30 02:55 | 38.85472 | -78.39661 | 24241 ft | 475 kts | 270° |
| 2026-04-30 02:56 | 38.85415 | -78.43990 | 24541 ft | 477 kts | 270° |
| 2026-04-30 02:56 | 38.85357 | -78.48363 | 24848 ft | 479 kts | 270° |
| 2026-04-30 02:56 | 38.85300 | -78.52673 | 25127 ft | 481 kts | 270° |
| 2026-04-30 02:56 | 38.85240 | -78.57124 | 25448 ft | 482 kts | 270° |
| 2026-04-30 02:57 | 38.85180 | -78.61503 | 25783 ft | 483 kts | 270° |
| 2026-04-30 02:57 | 38.85117 | -78.65942 | 26128 ft | 483 kts | 270° |
| 2026-04-30 02:57 | 38.85051 | -78.70393 | 26480 ft | 483 kts | 270° |
| 2026-04-30 02:57 | 38.84984 | -78.74817 | 26835 ft | 482 kts | 270° |
| 2026-04-30 02:58 | 38.84915 | -78.79253 | 27188 ft | 482 kts | 270° |
| 2026-04-30 02:58 | 38.84845 | -78.83646 | 27541 ft | 481 kts | 270° |
| 2026-04-30 02:58 | 38.84772 | -78.88043 | 27893 ft | 481 kts | 270° |
| 2026-04-30 02:58 | 38.84698 | -78.92455 | 28244 ft | 480 kts | 269° |
| 2026-04-30 02:59 | 38.84622 | -78.96876 | 28592 ft | 479 kts | 269° |
| 2026-04-30 02:59 | 38.84544 | -79.01266 | 28932 ft | 479 kts | 269° |
| 2026-04-30 02:59 | 38.84466 | -79.05615 | 29266 ft | 478 kts | 269° |
| 2026-04-30 02:59 | 38.84385 | -79.10035 | 29603 ft | 477 kts | 269° |
| 2026-04-30 03:00 | 38.84302 | -79.14435 | 29930 ft | 476 kts | 269° |
| 2026-04-30 03:00 | 38.84219 | -79.18779 | 30253 ft | 476 kts | 269° |
| 2026-04-30 03:00 | 38.84119 | -79.23141 | 30571 ft | 475 kts | 269° |
| 2026-04-30 03:00 | 38.83992 | -79.27441 | 30881 ft | 474 kts | 269° |
| 2026-04-30 03:01 | 38.83858 | -79.31831 | 31192 ft | 474 kts | 269° |
| 2026-04-30 03:01 | 38.83727 | -79.36144 | 31492 ft | 473 kts | 269° |
| 2026-04-30 03:01 | 38.83595 | -79.40488 | 31793 ft | 472 kts | 269° |
| 2026-04-30 03:01 | 38.83463 | -79.44797 | 32082 ft | 472 kts | 269° |
| 2026-04-30 03:02 | 38.83328 | -79.49160 | 32372 ft | 471 kts | 269° |
| 2026-04-30 03:02 | 38.83192 | -79.53494 | 32657 ft | 470 kts | 269° |
| 2026-04-30 03:02 | 38.83057 | -79.57783 | 32934 ft | 470 kts | 269° |
| 2026-04-30 03:02 | 38.82920 | -79.62085 | 33210 ft | 469 kts | 269° |
| 2026-04-30 03:03 | 38.82782 | -79.66364 | 33476 ft | 469 kts | 268° |
| 2026-04-30 03:03 | 38.82503 | -79.74903 | 34003 ft | 467 kts | 268° |
| 2026-04-30 03:03 | 38.82361 | -79.79172 | 34271 ft | 467 kts | 268° |
| 2026-04-30 03:04 | 38.82217 | -79.83457 | 34534 ft | 466 kts | 268° |
| 2026-04-30 03:04 | 38.82071 | -79.87746 | 34794 ft | 466 kts | 268° |
| 2026-04-30 03:04 | 38.81924 | -79.92027 | 35050 ft | 465 kts | 268° |
| 2026-04-30 03:04 | 38.81779 | -79.96238 | 35297 ft | 465 kts | 268° |
| 2026-04-30 03:05 | 38.81632 | -80.00446 | 35540 ft | 464 kts | 268° |
| 2026-04-30 03:05 | 38.81484 | -80.04646 | 35765 ft | 463 kts | 268° |
| 2026-04-30 03:05 | 38.81334 | -80.08858 | 35966 ft | 463 kts | 268° |
| 2026-04-30 03:05 | 38.81184 | -80.13075 | 36003 ft | 464 kts | 268° |
| 2026-04-30 03:06 | 38.80875 | -80.21517 | 35999 ft | 458 kts | 268° |
| 2026-04-30 03:06 | 38.80568 | -80.29799 | 36000 ft | 456 kts | 268° |
| 2026-04-30 03:07 | 38.80256 | -80.38091 | 36000 ft | 457 kts | 268° |
| 2026-04-30 03:07 | 38.79938 | -80.46453 | 35999 ft | 458 kts | 268° |
| 2026-04-30 03:08 | 38.79618 | -80.54711 | 36000 ft | 458 kts | 268° |
| 2026-04-30 03:08 | 38.79288 | -80.63088 | 35999 ft | 457 kts | 268° |
| 2026-04-30 03:09 | 38.78957 | -80.71351 | 36000 ft | 457 kts | 268° |
| 2026-04-30 03:09 | 38.78620 | -80.79602 | 36000 ft | 457 kts | 268° |
| 2026-04-30 03:10 | 38.78270 | -80.88032 | 36000 ft | 458 kts | 268° |
| 2026-04-30 03:10 | 38.77913 | -80.96496 | 36000 ft | 457 kts | 268° |
| 2026-04-30 03:11 | 38.77555 | -81.04810 | 35999 ft | 457 kts | 268° |
| 2026-04-30 03:11 | 38.77193 | -81.13099 | 36000 ft | 457 kts | 268° |
| 2026-04-30 03:12 | 38.76818 | -81.21556 | 35999 ft | 457 kts | 268° |
| 2026-04-30 03:12 | 38.76441 | -81.29916 | 35999 ft | 457 kts | 268° |
| 2026-04-30 03:13 | 38.76055 | -81.38344 | 35999 ft | 457 kts | 268° |
| 2026-04-30 03:13 | 38.75665 | -81.46711 | 35999 ft | 457 kts | 268° |
| 2026-04-30 03:14 | 38.75267 | -81.55129 | 35999 ft | 457 kts | 268° |
| 2026-04-30 03:14 | 38.74869 | -81.63420 | 35999 ft | 457 kts | 268° |
| 2026-04-30 03:15 | 38.74462 | -81.71777 | 36000 ft | 457 kts | 267° |
| 2026-04-30 03:15 | 38.74049 | -81.80138 | 36000 ft | 457 kts | 267° |
| 2026-04-30 03:16 | 38.73630 | -81.88508 | 36000 ft | 457 kts | 267° |
| 2026-04-30 03:16 | 38.73099 | -81.97007 | 36000 ft | 457 kts | 265° |
| 2026-04-30 03:17 | 38.72673 | -82.05365 | 35999 ft | 458 kts | 268° |
| 2026-04-30 03:17 | 38.72274 | -82.13789 | 36000 ft | 458 kts | 267° |
| 2026-04-30 03:18 | 38.71846 | -82.22140 | 35999 ft | 457 kts | 267° |
| 2026-04-30 03:18 | 38.71411 | -82.30376 | 35999 ft | 457 kts | 267° |
| 2026-04-30 03:19 | 38.70966 | -82.38643 | 35999 ft | 457 kts | 267° |
| 2026-04-30 03:19 | 38.70509 | -82.47010 | 35999 ft | 457 kts | 267° |
| 2026-04-30 03:20 | 38.70048 | -82.55292 | 35999 ft | 457 kts | 267° |
| 2026-04-30 03:20 | 38.69570 | -82.63763 | 35999 ft | 457 kts | 267° |
| 2026-04-30 03:21 | 38.69098 | -82.72021 | 36000 ft | 457 kts | 266° |
| 2026-04-30 03:21 | 38.68612 | -82.80414 | 35999 ft | 458 kts | 266° |
| 2026-04-30 03:22 | 38.68372 | -82.84568 | 35787 ft | 461 kts | 266° |
| 2026-04-30 03:22 | 38.68125 | -82.88802 | 35526 ft | 460 kts | 266° |
| 2026-04-30 03:22 | 38.67879 | -82.92982 | 35268 ft | 458 kts | 266° |
| 2026-04-30 03:22 | 38.67626 | -82.97241 | 35004 ft | 457 kts | 266° |
| 2026-04-30 03:23 | 38.67376 | -83.01440 | 34681 ft | 455 kts | 266° |
| 2026-04-30 03:23 | 38.67135 | -83.05548 | 33851 ft | 456 kts | 266° |
| 2026-04-30 03:23 | 38.66884 | -83.09744 | 32974 ft | 457 kts | 266° |
| 2026-04-30 03:23 | 38.66632 | -83.13944 | 32066 ft | 458 kts | 266° |
| 2026-04-30 03:24 | 38.66385 | -83.18074 | 31147 ft | 458 kts | 266° |
| 2026-04-30 03:24 | 38.66137 | -83.22221 | 30194 ft | 460 kts | 266° |
| 2026-04-30 03:24 | 38.65884 | -83.26459 | 29184 ft | 463 kts | 266° |
| 2026-04-30 03:24 | 38.65632 | -83.30692 | 28139 ft | 468 kts | 266° |
| 2026-04-30 03:25 | 38.65379 | -83.34953 | 27037 ft | 469 kts | 266° |
| 2026-04-30 03:25 | 38.65126 | -83.39185 | 25893 ft | 470 kts | 266° |
| 2026-04-30 03:25 | 38.64871 | -83.43441 | 24704 ft | 471 kts | 266° |
| 2026-04-30 03:25 | 38.64608 | -83.47723 | 23740 ft | 465 kts | 266° |
| 2026-04-30 03:26 | 38.64346 | -83.51901 | 23055 ft | 454 kts | 266° |
| 2026-04-30 03:26 | 38.64082 | -83.56077 | 22248 ft | 446 kts | 266° |
| 2026-04-30 03:26 | 38.63821 | -83.60088 | 21453 ft | 439 kts | 266° |
| 2026-04-30 03:26 | 38.63562 | -83.64034 | 20665 ft | 438 kts | 266° |
| 2026-04-30 03:27 | 38.63302 | -83.68012 | 19855 ft | 435 kts | 266° |
| 2026-04-30 03:27 | 38.63040 | -83.71984 | 19039 ft | 428 kts | 266° |
| 2026-04-30 03:27 | 38.62779 | -83.75816 | 18271 ft | 423 kts | 265° |
| 2026-04-30 03:27 | 38.62509 | -83.79647 | 17455 ft | 417 kts | 265° |
| 2026-04-30 03:28 | 38.62244 | -83.83411 | 16658 ft | 413 kts | 265° |
| 2026-04-30 03:28 | 38.62004 | -83.87144 | 15869 ft | 409 kts | 267° |
| 2026-04-30 03:28 | 38.61969 | -83.88068 | 15678 ft | 407 kts | 269° |
| 2026-04-30 03:43 | 38.61961 | -83.89049 | 15474 ft | 405 kts | 272° |
| 2026-04-30 03:43 | 38.62330 | -83.92703 | 14716 ft | 401 kts | 287° |
| 2026-04-30 03:43 | 38.63460 | -83.96012 | 13972 ft | 396 kts | 301° |
| 2026-04-30 03:43 | 38.65028 | -83.99071 | 13204 ft | 392 kts | 305° |
| 2026-04-30 03:44 | 38.66583 | -84.01997 | 12446 ft | 389 kts | 304° |
| 2026-04-30 03:44 | 38.68128 | -84.04964 | 11722 ft | 385 kts | 304° |
| 2026-04-30 03:44 | 38.69627 | -84.07860 | 11259 ft | 374 kts | 304° |
| 2026-04-30 03:44 | 38.71067 | -84.10656 | 10979 ft | 359 kts | 304° |
| 2026-04-30 03:45 | 38.72196 | -84.13522 | 10827 ft | 340 kts | 287° |
| 2026-04-30 03:45 | 38.72478 | -84.16555 | 10666 ft | 324 kts | 270° |
| 2026-04-30 03:45 | 38.72406 | -84.19467 | 10491 ft | 314 kts | 269° |
| 2026-04-30 03:45 | 38.72360 | -84.22337 | 10321 ft | 300 kts | 270° |
| 2026-04-30 03:46 | 38.72339 | -84.25032 | 10151 ft | 291 kts | 270° |
| 2026-04-30 03:46 | 38.72327 | -84.27650 | 9832 ft | 289 kts | 271° |
| 2026-04-30 03:46 | 38.72321 | -84.30312 | 9442 ft | 288 kts | 271° |
| 2026-04-30 03:46 | 38.72319 | -84.32893 | 9073 ft | 286 kts | 271° |
| 2026-04-30 03:47 | 38.72318 | -84.35485 | 8704 ft | 284 kts | 271° |
| 2026-04-30 03:47 | 38.72317 | -84.38025 | 8344 ft | 282 kts | 271° |
| 2026-04-30 03:47 | 38.72316 | -84.40510 | 8024 ft | 278 kts | 271° |
| 2026-04-30 03:47 | 38.72507 | -84.43058 | 7656 ft | 278 kts | 290° |
| 2026-04-30 03:48 | 38.73653 | -84.45078 | 7304 ft | 273 kts | 324° |
| 2026-04-30 03:48 | 38.75288 | -84.46441 | 6954 ft | 272 kts | 327° |
| 2026-04-30 03:48 | 38.76728 | -84.48090 | 6588 ft | 272 kts | 311° |
| 2026-04-30 03:48 | 38.77934 | -84.50028 | 6235 ft | 271 kts | 309° |
| 2026-04-30 03:49 | 38.79114 | -84.51973 | 5883 ft | 272 kts | 309° |
| 2026-04-30 03:49 | 38.80309 | -84.53944 | 5525 ft | 271 kts | 309° |
| 2026-04-30 03:49 | 38.81469 | -84.55866 | 5204 ft | 270 kts | 309° |
| 2026-04-30 03:49 | 38.82643 | -84.57818 | 4976 ft | 262 kts | 309° |
| 2026-04-30 03:50 | 38.83754 | -84.59671 | 4748 ft | 255 kts | 309° |
| 2026-04-30 03:50 | 38.84843 | -84.61488 | 4468 ft | 251 kts | 309° |
| 2026-04-30 03:50 | 38.85914 | -84.63245 | 4199 ft | 247 kts | 313° |
| 2026-04-30 03:50 | 38.87313 | -84.64560 | 3931 ft | 242 kts | 341° |
| 2026-04-30 03:51 | 38.89011 | -84.64794 | 3568 ft | 241 kts | 5° |
| 2026-04-30 03:51 | 38.90700 | -84.64719 | 3236 ft | 241 kts | 1° |
| 2026-04-30 03:51 | 38.92423 | -84.64716 | 2901 ft | 237 kts | 1° |
| 2026-04-30 03:51 | 38.94104 | -84.64709 | 2550 ft | 223 kts | 2° |
| 2026-04-30 03:52 | 38.95633 | -84.64690 | 2327 ft | 205 kts | 1° |
| 2026-04-30 03:52 | 38.97021 | -84.64692 | 2094 ft | 180 kts | 1° |
| 2026-04-30 03:52 | 38.98205 | -84.64691 | 1806 ft | 152 kts | 1° |
| 2026-04-30 03:52 | 38.99261 | -84.64689 | 1633 ft | 146 kts | 1° |
| 2026-04-30 03:53 | 39.00325 | -84.64684 | 1423 ft | 149 kts | 1° |
| 2026-04-30 03:53 | 39.01378 | -84.64681 | 1219 ft | 147 kts | 1° |
| 2026-04-30 03:53 | 39.02428 | -84.64668 | 1016 ft | 147 kts | 2° |
| 2026-04-30 03:53 | 39.03463 | -84.64668 | 888 ft | 127 kts | 358° |
| 2026-04-30 03:54 | 39.04069 | -84.64672 | 903 ft | 42 kts | 1° |
| 2026-04-30 03:54 | 39.04287 | -84.64674 | 902 ft | 28 kts | 355° |
| 2026-04-30 03:54 | 39.04460 | -84.64800 | 894 ft | 27 kts | 282° |
| 2026-04-30 03:54 | 39.04462 | -84.65095 | 890 ft | 34 kts | 270° |
| 2026-04-30 03:55 | 39.04498 | -84.65291 | 884 ft | 17 kts | 335° |
| 2026-04-30 03:55 | 39.04635 | -84.65297 | 883 ft | 17 kts | 359° |
| 2026-04-30 03:55 | 39.04776 | -84.65298 | 883 ft | 21 kts | 359° |
| 2026-04-30 03:55 | 39.04893 | -84.65305 | 884 ft | 10 kts | 347° |
| 2026-04-30 03:56 | 39.04953 | -84.65314 | 885 ft | 5 kts | 358° |
| 2026-04-30 03:56 | 39.04974 | -84.65314 | 885 ft | 1 kts | 0° |
| 2026-04-30 03:56 | 39.04976 | -84.65314 | 885 ft | 0 kts | 0° |
| 2026-04-30 03:56 | 39.04977 | -84.65314 | 885 ft | 0 kts | 0° |